createdAt,value
2023-02-24T00:01:52.625Z,99676.97
2023-02-24T00:04:21.261Z,99676.81
2023-02-24T00:06:49.242Z,99685.53
2023-02-24T00:09:20.126Z,99684.91
2023-02-24T00:11:49.230Z,99686.63
2023-02-24T00:14:17.104Z,99682.72
2023-02-24T00:16:45.313Z,99680.47
2023-02-24T00:19:18.115Z,99682.47
2023-02-24T00:21:46.608Z,99675.06
2023-02-24T00:24:15.110Z,99667.59
2023-02-24T00:26:42.965Z,99672.03
2023-02-24T00:29:12.522Z,99662.31
2023-02-24T00:31:42.972Z,99654.66
2023-02-24T00:34:12.874Z,99656.09
2023-02-24T00:36:40.686Z,99661.53
2023-02-24T00:39:09.759Z,99643.56
2023-02-24T00:41:43.679Z,99646.19
2023-02-24T00:44:14.152Z,99637.69
2023-02-24T00:46:44.814Z,99637.56
2023-02-24T00:49:17.237Z,99635.69
2023-02-24T00:51:46.824Z,99639.41
2023-02-24T00:54:16.908Z,99639.91
2023-02-24T00:56:46.212Z,99625.28
2023-02-24T00:59:18.689Z,99627.59
2023-02-24T01:01:46.553Z,99628.09
2023-02-24T01:04:15.754Z,99617.72
2023-02-24T01:07:00.141Z,99610.41
2023-02-24T01:09:30.465Z,99612.37
2023-02-24T01:12:17.120Z,99605.66
2023-02-24T01:14:47.848Z,99610.63
2023-02-24T01:17:16.841Z,99604.81
2023-02-24T01:19:45.833Z,99610.09
2023-02-24T01:22:15.111Z,99598.78
2023-02-24T01:24:44.602Z,99590.22
2023-02-24T01:27:13.584Z,99582.72
2023-02-24T01:29:41.293Z,99580.22
2023-02-24T01:32:14.879Z,99577.75
2023-02-24T01:34:43.100Z,99570.81
2023-02-24T01:37:10.928Z,99563.38
2023-02-24T01:39:38.670Z,99565.47
2023-02-24T01:42:06.925Z,99560.00
2023-02-24T01:44:34.511Z,99552.03
2023-02-24T01:47:02.011Z,99557.88
2023-02-24T01:49:36.995Z,99549.78
2023-02-24T01:52:09.177Z,99553.34
2023-02-24T01:54:43.114Z,99550.69
2023-02-24T01:57:16.656Z,99542.91
2023-02-24T01:59:47.279Z,99537.03
2023-02-24T02:02:15.631Z,99542.81
2023-02-24T02:04:47.011Z,99534.31
2023-02-24T02:07:17.167Z,99530.63
2023-02-24T02:09:46.809Z,99532.91
2023-02-24T02:12:14.652Z,99526.19
2023-02-24T02:14:48.014Z,99524.50
2023-02-24T02:17:26.658Z,99524.91
2023-02-24T02:20:15.858Z,99525.59
2023-02-24T02:23:07.695Z,99521.56
2023-02-24T02:25:56.456Z,99519.47
2023-02-24T02:28:47.696Z,99515.09
2023-02-24T02:31:33.983Z,99511.91
2023-02-24T02:34:22.599Z,99505.00
2023-02-24T02:37:16.337Z,99513.06
2023-02-24T02:40:19.961Z,99511.31
2023-02-24T02:42:54.119Z,99512.06
2023-02-24T02:45:25.967Z,99508.09
2023-02-24T02:47:59.715Z,99502.81
2023-02-24T02:50:39.069Z,99503.69
2023-02-24T02:53:16.213Z,99498.53
2023-02-24T02:55:45.958Z,99491.53
2023-02-24T02:58:16.655Z,99489.31
2023-02-24T03:01:01.744Z,99483.78
2023-02-24T03:03:33.108Z,99484.44
2023-02-24T03:06:06.984Z,99481.91
2023-02-24T03:08:38.274Z,99487.34
2023-02-24T03:11:11.006Z,99481.06
2023-02-24T03:13:41.797Z,99483.47
2023-02-24T03:16:10.952Z,99479.41
2023-02-24T03:18:41.463Z,99484.09
2023-02-24T03:21:13.731Z,99496.50
2023-02-24T03:23:46.140Z,99476.47
2023-02-24T03:26:21.316Z,99468.88
2023-02-24T03:28:59.258Z,99466.06
2023-02-24T03:31:51.120Z,99472.97
2023-02-24T03:34:24.320Z,99470.41
2023-02-24T03:36:54.646Z,99473.75
2023-02-24T03:39:23.660Z,99476.41
2023-02-24T03:42:01.554Z,99467.84
2023-02-24T03:44:30.096Z,99468.31
2023-02-24T03:46:57.550Z,99466.19
2023-02-24T03:49:25.579Z,99467.69
2023-02-24T03:52:32.653Z,99470.56
2023-02-24T03:55:24.909Z,99462.56
2023-02-24T03:58:12.847Z,99461.38
2023-02-24T04:00:57.842Z,99457.47
2023-02-24T04:03:32.974Z,99462.16
2023-02-24T04:06:28.021Z,99444.78
2023-02-24T04:09:26.090Z,99440.72
2023-02-24T04:12:09.897Z,99425.00
2023-02-24T04:15:11.877Z,99428.63
2023-02-24T04:17:46.361Z,99432.97
2023-02-24T04:20:16.729Z,99425.84
2023-02-24T04:22:49.719Z,99420.84
2023-02-24T04:25:20.127Z,99414.34
2023-02-24T04:27:48.063Z,99399.09
2023-02-24T04:30:15.688Z,99398.53
2023-02-24T04:32:44.409Z,99399.56
2023-02-24T04:35:15.506Z,99396.44
2023-02-24T04:37:46.460Z,99395.91
2023-02-24T04:40:22.167Z,99384.19
2023-02-24T04:42:52.027Z,99385.88
2023-02-24T04:45:28.229Z,99390.72
2023-02-24T04:48:01.037Z,99380.56
2023-02-24T04:50:35.343Z,99384.00
2023-02-24T04:53:09.574Z,99376.75
2023-02-24T04:55:40.421Z,99370.50
2023-02-24T04:58:12.795Z,99371.25
2023-02-24T05:00:42.259Z,99366.00
2023-02-24T05:03:11.914Z,99368.63
2023-02-24T05:05:39.684Z,99366.63
2023-02-24T05:08:09.424Z,99368.37
2023-02-24T05:10:43.972Z,99364.06
2023-02-24T05:13:27.780Z,99359.00
2023-02-24T05:15:57.227Z,99366.47
2023-02-24T05:18:25.809Z,99366.66
2023-02-24T05:21:14.155Z,99352.31
2023-02-24T05:23:46.887Z,99349.88
2023-02-24T05:26:19.554Z,99361.56
2023-02-24T05:28:49.519Z,99354.81
2023-02-24T05:31:19.591Z,99352.25
2023-02-24T05:33:50.103Z,99359.56
2023-02-24T05:36:18.981Z,99361.69
2023-02-24T05:38:48.034Z,99367.56
2023-02-24T05:41:20.113Z,99364.25
2023-02-24T05:43:54.895Z,99359.34
2023-02-24T05:46:28.342Z,99358.72
2023-02-24T05:48:57.085Z,99354.69
2023-02-24T05:51:35.484Z,99357.16
2023-02-24T05:54:05.064Z,99354.06
2023-02-24T05:56:37.768Z,99354.66
2023-02-24T05:59:06.789Z,99347.06
2023-02-24T06:01:45.732Z,99344.13
2023-02-24T06:04:27.920Z,99340.28
2023-02-24T06:06:55.400Z,99341.16
2023-02-24T06:09:23.388Z,99348.72
2023-02-24T06:11:51.015Z,99344.50
2023-02-24T06:14:18.561Z,99349.91
2023-02-24T06:16:46.768Z,99354.06
2023-02-24T06:19:15.724Z,99358.53
2023-02-24T06:21:44.287Z,99360.63
2023-02-24T06:24:18.613Z,99355.81
2023-02-24T06:26:46.548Z,99359.66
2023-02-24T06:29:15.682Z,99354.00
2023-02-24T06:31:44.327Z,99350.28
2023-02-24T06:34:13.297Z,99352.44
2023-02-24T06:36:41.214Z,99357.75
2023-02-24T06:39:09.374Z,99349.50
2023-02-24T06:41:38.181Z,99346.84
2023-02-24T06:44:06.302Z,99337.44
2023-02-24T06:46:33.975Z,99339.97
2023-02-24T06:49:01.658Z,99348.13
2023-02-24T06:51:30.384Z,99349.62
2023-02-24T06:53:59.526Z,99335.75
2023-02-24T06:56:27.875Z,99339.91
2023-02-24T06:58:57.058Z,99330.09
2023-02-24T07:01:26.787Z,99326.81
2023-02-24T07:04:02.201Z,99330.72
2023-02-24T07:06:34.361Z,99333.47
2023-02-24T07:09:07.186Z,99330.94
2023-02-24T07:11:35.669Z,99326.66
2023-02-24T07:14:05.935Z,99327.78
2023-02-24T07:16:35.529Z,99320.22
2023-02-24T07:19:11.315Z,99322.78
2023-02-24T07:21:43.441Z,99315.37
2023-02-24T07:24:20.216Z,99317.56
2023-02-24T07:26:51.920Z,99315.91
2023-02-24T07:29:19.729Z,99310.25
2023-02-24T07:31:49.030Z,99304.28
2023-02-24T07:34:26.581Z,99306.94
2023-02-24T07:36:55.877Z,99306.94
2023-02-24T07:39:24.900Z,99303.91
2023-02-24T07:41:55.288Z,99299.31
2023-02-24T07:44:26.461Z,99299.41
2023-02-24T07:46:55.104Z,99301.13
2023-02-24T07:49:37.529Z,99294.22
2023-02-24T07:52:08.395Z,99294.75
2023-02-24T07:54:40.913Z,99290.81
2023-02-24T07:57:14.396Z,99297.13
2023-02-24T07:59:45.764Z,99288.94
2023-02-24T08:02:14.043Z,99286.22
2023-02-24T08:04:50.250Z,99281.62
2023-02-24T08:07:25.262Z,99284.91
2023-02-24T08:10:14.757Z,99279.81
2023-02-24T08:12:43.094Z,99276.81
2023-02-24T08:15:17.496Z,99278.03
2023-02-24T08:17:47.665Z,99279.81
2023-02-24T08:20:15.537Z,99281.78
2023-02-24T08:22:47.129Z,99287.75
2023-02-24T08:25:19.140Z,99276.81
2023-02-24T08:28:07.437Z,99272.75
2023-02-24T08:30:40.084Z,99269.72
2023-02-24T08:33:10.110Z,99265.22
2023-02-24T08:35:41.837Z,99257.88
2023-02-24T08:38:14.499Z,99260.72
2023-02-24T08:40:51.387Z,99241.69
2023-02-24T08:43:31.101Z,99232.09
2023-02-24T08:46:03.925Z,99242.53
2023-02-24T08:48:37.749Z,99237.47
2023-02-24T08:51:25.115Z,99246.69
2023-02-24T08:53:54.315Z,99238.16
2023-02-24T08:56:27.431Z,99242.19
2023-02-24T08:59:06.145Z,99235.56
2023-02-24T09:01:37.294Z,99235.16
2023-02-24T09:04:10.129Z,99226.94
2023-02-24T09:06:40.495Z,99232.16
2023-02-24T09:09:23.073Z,99227.50
2023-02-24T09:11:59.612Z,99227.03
2023-02-24T09:14:42.393Z,99220.06
2023-02-24T09:17:15.070Z,99217.09
2023-02-24T09:19:48.147Z,99205.44
2023-02-24T09:22:32.788Z,99199.75
2023-02-24T09:25:19.148Z,99197.00
2023-02-24T09:28:09.888Z,99189.81
2023-02-24T09:30:51.273Z,99184.63
2023-02-24T09:33:38.922Z,99188.34
2023-02-24T09:36:20.720Z,99184.31
2023-02-24T09:39:02.123Z,99190.59
2023-02-24T09:42:04.945Z,99191.50
2023-02-24T09:44:33.746Z,99190.16
2023-02-24T09:47:09.152Z,99183.53
2023-02-24T09:49:59.129Z,99184.38
2023-02-24T09:52:42.481Z,99184.25
2023-02-24T09:55:45.241Z,99172.41
2023-02-24T09:58:21.485Z,99173.94
2023-02-24T10:01:21.866Z,99177.53
2023-02-24T10:04:23.098Z,99179.66
2023-02-24T10:06:55.385Z,99170.69
2023-02-24T10:09:27.621Z,99160.31
2023-02-24T10:12:04.589Z,99162.66
2023-02-24T10:15:17.031Z,99155.03
2023-02-24T10:17:55.494Z,99156.03
2023-02-24T10:20:40.262Z,99142.63
2023-02-24T10:23:33.391Z,99140.47
2023-02-24T10:26:31.988Z,99128.25
2023-02-24T10:29:02.792Z,99131.84
2023-02-24T10:31:38.101Z,99123.09
2023-02-24T10:34:10.052Z,99121.72
2023-02-24T10:36:38.095Z,99110.06
2023-02-24T10:39:20.526Z,99110.06
2023-02-24T10:41:57.463Z,99105.09
2023-02-24T10:44:36.261Z,99105.75
2023-02-24T10:47:13.174Z,99101.72
2023-02-24T10:49:57.157Z,99085.81
2023-02-24T10:53:09.584Z,99083.66
2023-02-24T10:55:42.857Z,99070.31
2023-02-24T10:58:37.556Z,99061.59
2023-02-24T11:01:13.662Z,99059.34
2023-02-24T11:04:01.372Z,99052.19
2023-02-24T11:06:40.458Z,99050.88
2023-02-24T11:09:29.603Z,99045.06
2023-02-24T11:12:31.864Z,99037.09
2023-02-24T11:15:21.321Z,99038.16
2023-02-24T11:17:59.429Z,99035.75
2023-02-24T11:20:48.000Z,99023.91
2023-02-24T11:23:20.386Z,99020.94
2023-02-24T11:25:50.254Z,99016.97
2023-02-24T11:28:40.991Z,99020.50
2023-02-24T11:31:31.027Z,99008.97
2023-02-24T11:34:01.092Z,99006.75
2023-02-24T11:36:54.565Z,99001.41
2023-02-24T11:39:25.257Z,98998.47
2023-02-24T11:41:56.245Z,98995.66
2023-02-24T11:44:34.778Z,98991.25
2023-02-24T11:47:09.743Z,98991.72
2023-02-24T11:49:50.690Z,98978.81
2023-02-24T11:52:38.911Z,98981.75
2023-02-24T11:55:15.410Z,98966.97
2023-02-24T11:57:46.956Z,98966.47
2023-02-24T12:00:25.679Z,98965.59
2023-02-24T12:03:07.166Z,98956.19
2023-02-24T12:05:39.184Z,98952.47
2023-02-24T12:08:09.822Z,98952.56
2023-02-24T12:10:50.527Z,98939.34
2023-02-24T12:13:30.541Z,98940.72
2023-02-24T12:16:04.625Z,98947.75
2023-02-24T12:18:40.300Z,98938.09
2023-02-24T12:21:13.435Z,98930.91
2023-02-24T12:23:44.614Z,98917.06
2023-02-24T12:26:32.449Z,98919.34
2023-02-24T12:29:12.542Z,98913.69
2023-02-24T12:32:07.942Z,98915.41
2023-02-24T12:34:52.519Z,98909.81
2023-02-24T12:37:27.584Z,98913.75
2023-02-24T12:40:11.748Z,98905.94
2023-02-24T12:42:48.273Z,98907.81
2023-02-24T12:45:30.824Z,98905.66
2023-02-24T12:48:33.512Z,98895.44
2023-02-24T12:51:23.163Z,98895.81
2023-02-24T12:54:00.147Z,98894.53
2023-02-24T12:56:38.143Z,98899.75
2023-02-24T12:59:06.618Z,98891.16
2023-02-24T13:01:38.445Z,98886.72
2023-02-24T13:04:32.050Z,98876.84
2023-02-24T13:07:09.859Z,98874.06
2023-02-24T13:10:07.988Z,98868.91
2023-02-24T13:12:41.652Z,98874.97
2023-02-24T13:15:24.230Z,98866.78
2023-02-24T13:17:55.311Z,98865.59
2023-02-24T13:20:32.431Z,98867.94
2023-02-24T13:23:01.984Z,98863.59
2023-02-24T13:25:35.476Z,98858.34
2023-02-24T13:28:06.458Z,98855.97
2023-02-24T13:30:40.676Z,98842.44
2023-02-24T13:33:17.431Z,98847.31
2023-02-24T13:35:46.946Z,98838.53
2023-02-24T13:38:49.797Z,98843.75
2023-02-24T13:41:21.055Z,98836.91
2023-02-24T13:43:59.155Z,98835.69
2023-02-24T13:47:00.616Z,98826.16
2023-02-24T13:49:37.676Z,98827.37
2023-02-24T13:52:32.667Z,98817.88
2023-02-24T13:55:24.659Z,98816.94
2023-02-24T13:57:59.861Z,98823.72
2023-02-24T14:00:35.187Z,98813.06
2023-02-24T14:03:10.292Z,98807.06
2023-02-24T14:05:40.686Z,98807.00
2023-02-24T14:08:08.522Z,98803.97
2023-02-24T14:10:37.773Z,98790.41
2023-02-24T14:13:16.259Z,98791.84
2023-02-24T14:15:45.334Z,98790.34
2023-02-24T14:18:22.196Z,98793.81
2023-02-24T14:20:52.313Z,98783.31
2023-02-24T14:23:25.724Z,98786.50
2023-02-24T14:26:00.917Z,98786.84
2023-02-24T14:28:32.100Z,98777.06
2023-02-24T14:31:15.779Z,98778.00
2023-02-24T14:33:45.116Z,98774.81
2023-02-24T14:36:24.376Z,98768.50
2023-02-24T14:39:09.347Z,98762.09
2023-02-24T14:41:37.260Z,98756.78
2023-02-24T14:44:13.475Z,98764.22
2023-02-24T14:46:52.950Z,98751.94
2023-02-24T14:49:29.844Z,98749.16
2023-02-24T14:52:23.757Z,98744.13
2023-02-24T14:55:00.932Z,98735.47
2023-02-24T14:57:34.884Z,98738.50
2023-02-24T15:00:11.202Z,98734.44
2023-02-24T15:02:44.468Z,98727.94
2023-02-24T15:05:12.325Z,98724.59
2023-02-24T15:07:44.448Z,98726.00
2023-02-24T15:10:22.532Z,98723.91
2023-02-24T15:13:12.794Z,98718.19
2023-02-24T15:15:42.628Z,98712.97
2023-02-24T15:18:23.825Z,98715.44
2023-02-24T15:21:06.401Z,98717.75
2023-02-24T15:23:37.611Z,98712.75
2023-02-24T15:26:11.090Z,98716.66
2023-02-24T15:28:43.596Z,98712.34
2023-02-24T15:31:17.828Z,98713.44
2023-02-24T15:33:53.664Z,98701.16
2023-02-24T15:36:24.843Z,98705.06
2023-02-24T15:38:55.347Z,98701.59
2023-02-24T15:41:23.121Z,98698.41
2023-02-24T15:43:53.227Z,98703.19
2023-02-24T15:46:35.758Z,98702.03
2023-02-24T15:49:05.031Z,98688.59
2023-02-24T15:51:32.781Z,98689.03
2023-02-24T15:54:01.812Z,98691.28
2023-02-24T15:56:32.298Z,98687.91
2023-02-24T15:59:02.986Z,98686.66
2023-02-24T16:01:31.142Z,98688.94
2023-02-24T16:04:00.467Z,98681.47
2023-02-24T16:06:28.594Z,98680.13
2023-02-24T16:08:57.216Z,98686.03
2023-02-24T16:11:27.467Z,98675.00
2023-02-24T16:13:57.634Z,98673.66
2023-02-24T16:16:26.790Z,98673.09
2023-02-24T16:18:54.564Z,98668.69
2023-02-24T16:21:22.111Z,98658.97
2023-02-24T16:23:50.548Z,98661.53
2023-02-24T16:26:23.552Z,98661.38
2023-02-24T16:28:56.922Z,98661.53
2023-02-24T16:31:26.338Z,98644.75
2023-02-24T16:33:55.965Z,98653.22
2023-02-24T16:36:25.800Z,98638.09
2023-02-24T16:38:54.304Z,98642.81
2023-02-24T16:41:21.903Z,98639.63
2023-02-24T16:43:50.099Z,98628.97
2023-02-24T16:46:22.869Z,98632.91
2023-02-24T16:48:53.505Z,98627.06
2023-02-24T16:51:22.049Z,98626.16
2023-02-24T16:53:49.645Z,98631.09
2023-02-24T16:56:18.104Z,98631.63
2023-02-24T17:01:20.126Z,98624.84
2023-02-24T17:06:29.280Z,98615.44
2023-02-24T17:08:57.267Z,98615.44
2023-02-24T17:11:26.484Z,98612.03
2023-02-24T17:16:22.094Z,98613.59
2023-02-24T17:21:24.432Z,98609.66
2023-02-24T17:26:31.782Z,98609.44
2023-02-24T17:31:31.785Z,98609.31
2023-02-24T17:36:39.132Z,98603.88
2023-02-24T17:39:06.936Z,98603.88
2023-02-24T17:41:34.597Z,98607.88
2023-02-24T17:46:53.786Z,98605.72
2023-02-24T17:49:21.376Z,98601.38
2023-02-24T17:51:49.395Z,98598.78
2023-02-24T17:54:16.972Z,98604.16
2023-02-24T17:56:44.526Z,98604.59
2023-02-24T18:01:39.683Z,98591.03
2023-02-24T18:06:42.771Z,98576.97
2023-02-24T18:11:45.918Z,98568.13
2023-02-24T18:14:14.433Z,98568.75
2023-02-24T18:16:42.038Z,98568.94
2023-02-24T18:19:09.410Z,98561.41
2023-02-24T18:21:37.222Z,98559.38
2023-02-24T18:24:05.306Z,98562.13
2023-02-24T18:26:32.826Z,98561.78
2023-02-24T18:29:00.776Z,98554.84
2023-02-24T18:31:28.887Z,98557.47
2023-02-24T18:33:57.239Z,98550.69
2023-02-24T18:36:25.649Z,98551.03
2023-02-24T18:38:53.248Z,98549.69
2023-02-24T18:41:22.116Z,98556.34
2023-02-24T18:43:54.252Z,98555.50
2023-02-24T18:46:22.731Z,98548.38
2023-02-24T18:48:50.902Z,98551.38
2023-02-24T18:51:21.673Z,98542.22
2023-02-24T18:53:51.489Z,98549.41
2023-02-24T18:56:23.615Z,98540.03
2023-02-24T18:58:55.394Z,98536.91
2023-02-24T19:01:30.698Z,98534.38
2023-02-24T19:03:58.827Z,98537.47
2023-02-24T19:06:28.685Z,98536.41
2023-02-24T19:09:06.677Z,98530.63
2023-02-24T19:11:34.629Z,98524.81
2023-02-24T19:14:03.071Z,98528.94
2023-02-24T19:16:30.943Z,98528.44
2023-02-24T19:19:00.133Z,98515.66
2023-02-24T19:21:29.569Z,98517.13
2023-02-24T19:24:03.660Z,98516.66
2023-02-24T19:26:31.607Z,98505.78
2023-02-24T19:29:03.375Z,98504.72
2023-02-24T19:31:33.318Z,98505.91
2023-02-24T19:34:04.031Z,98507.56
2023-02-24T19:36:33.180Z,98506.53
2023-02-24T19:39:01.687Z,98505.69
2023-02-24T19:41:29.807Z,98494.63
2023-02-24T19:43:57.227Z,98494.88
2023-02-24T19:46:25.487Z,98488.75
2023-02-24T19:48:53.557Z,98494.34
2023-02-24T19:51:23.661Z,98500.47
2023-02-24T19:53:56.600Z,98490.19
2023-02-24T19:56:32.354Z,98499.41
2023-02-24T19:59:01.170Z,98491.16
2023-02-24T20:01:29.696Z,98487.19
2023-02-24T20:03:59.764Z,98476.94
2023-02-24T20:06:31.697Z,98481.09
2023-02-24T20:09:00.198Z,98467.00
2023-02-24T20:11:30.417Z,98477.25
2023-02-24T20:13:58.159Z,98469.16
2023-02-24T20:16:27.314Z,98465.31
2023-02-24T20:18:55.431Z,98460.63
2023-02-24T20:21:23.394Z,98470.19
2023-02-24T20:23:51.475Z,98467.81
2023-02-24T20:26:19.642Z,98467.53
2023-02-24T20:28:48.072Z,98460.13
2023-02-24T20:31:19.659Z,98459.91
2023-02-24T20:33:48.600Z,98456.66
2023-02-24T20:36:23.894Z,98460.38
2023-02-24T20:38:52.446Z,98457.97
2023-02-24T20:41:21.751Z,98451.88
2023-02-24T20:43:49.492Z,98449.31
2023-02-24T20:46:25.228Z,98445.00
2023-02-24T20:48:56.789Z,98440.84
2023-02-24T20:51:25.166Z,98439.53
2023-02-24T20:53:57.696Z,98435.78
2023-02-24T20:56:27.909Z,98435.66
2023-02-24T20:59:07.687Z,98429.09
2023-02-24T21:01:35.882Z,98431.00
2023-02-24T21:04:03.785Z,98426.69
2023-02-24T21:06:31.591Z,98421.09
2023-02-24T21:08:59.147Z,98415.97
2023-02-24T21:11:27.316Z,98407.84
2023-02-24T21:13:55.010Z,98407.59
2023-02-24T21:16:23.168Z,98404.31
2023-02-24T21:18:53.315Z,98405.19
2023-02-24T21:21:21.258Z,98404.53
2023-02-24T21:23:48.990Z,98407.19
2023-02-24T21:26:17.874Z,98415.22
2023-02-24T21:28:46.319Z,98397.22
2023-02-24T21:31:17.173Z,98397.88
2023-02-24T21:33:45.096Z,98391.75
2023-02-24T21:36:14.996Z,98379.56
2023-02-24T21:38:42.717Z,98386.84
2023-02-24T21:41:14.733Z,98379.41
2023-02-24T21:43:42.665Z,98376.53
2023-02-24T21:46:11.406Z,98377.31
2023-02-24T21:48:40.629Z,98365.06
2023-02-24T21:51:10.054Z,98374.59
2023-02-24T21:53:39.413Z,98369.00
2023-02-24T21:56:11.117Z,98382.03
2023-02-24T21:58:40.376Z,98390.13
2023-02-24T22:01:20.121Z,98389.59
2023-02-24T22:03:48.284Z,98390.69
2023-02-24T22:06:17.756Z,98388.16
2023-02-24T22:08:45.741Z,98384.38
2023-02-24T22:11:15.756Z,98382.06
2023-02-24T22:13:44.341Z,98382.00
2023-02-24T22:16:15.371Z,98379.38
2023-02-24T22:18:44.295Z,98378.19
2023-02-24T22:21:17.181Z,98368.63
2023-02-24T22:23:46.112Z,98374.03
2023-02-24T22:26:14.546Z,98359.84
2023-02-24T22:28:43.865Z,98353.63
2023-02-24T22:31:12.868Z,98356.00
2023-02-24T22:33:41.781Z,98348.00
2023-02-24T22:36:25.261Z,98343.28
2023-02-24T22:38:54.878Z,98343.41
2023-02-24T22:41:24.618Z,98343.88
2023-02-24T22:43:53.970Z,98343.62
2023-02-24T22:46:25.226Z,98343.00
2023-02-24T22:48:52.900Z,98337.88
2023-02-24T22:51:20.743Z,98323.06
2023-02-24T22:53:50.095Z,98324.09
2023-02-24T22:56:20.457Z,98324.53
2023-02-24T22:58:48.794Z,98312.09
2023-02-24T23:01:22.406Z,98304.28
2023-02-24T23:03:50.757Z,98304.06
2023-02-24T23:06:22.076Z,98301.81
2023-02-24T23:08:50.740Z,98291.19
2023-02-24T23:11:21.063Z,98302.72
2023-02-24T23:13:50.267Z,98290.06
2023-02-24T23:16:21.899Z,98281.56
2023-02-24T23:18:56.189Z,98283.69
2023-02-24T23:21:33.802Z,98291.41
2023-02-24T23:24:02.195Z,98283.38
2023-02-24T23:26:39.344Z,98280.16
2023-02-24T23:29:07.348Z,98279.06
2023-02-24T23:31:35.789Z,98278.47
2023-02-24T23:34:06.998Z,98270.97
2023-02-24T23:36:36.905Z,98269.84
2023-02-24T23:39:06.602Z,98264.09
2023-02-24T23:41:35.858Z,98258.19
2023-02-24T23:44:04.097Z,98255.28
2023-02-24T23:46:35.951Z,98249.78
2023-02-24T23:49:04.803Z,98242.78
2023-02-24T23:51:47.133Z,98235.31
2023-02-24T23:54:16.985Z,98230.13
2023-02-24T23:56:44.861Z,98231.28
2023-02-24T23:59:12.427Z,98220.91
